SBUL

Details ICAO SBUL (UDI)
Name Uberlandia Airport Ten Cel AV Cesar Bombonato
Region Brazil
Timezone America/Sao_Paulo (UTC-3.0)
Plans Departing 88
Arriving 78
Stats Elevation 3,094 ft / 943 m (AMSL)
Location -18.883500° -48.225900°
Runways 1
Magnetic Variation 21.429° W
Sunrise 2019-05-19 09:35:12 UTC / 2019-05-19 06:35:12 Local
Sunset 2019-05-19 20:46:22 UTC / 2019-05-19 17:46:22 Local
Advertisement - Login to hide

Runways

ID Width Length Bearing (true/mag) Surface Threshold Overrun Markings Lighting
04 148 ft / 45 m 6,920 ft / 2,109 m 22.57° / 44.00° ASPHALT 0 ft / 0 m 0 ft / 0 m PREC-APP EDGE THRESHOLD
22 148 ft / 45 m 6,920 ft / 2,109 m 202.57° / 224.00° ASPHALT 0 ft / 0 m 0 ft / 0 m PREC-APP EDGE THRESHOLD

Map

Weather


0- 5 10 15 20 25 30 35+ Temperature / °C

Clouds and Precipitation
Forecast for 2019-05-19 06:00 UTC. Updated 3 hours ago

Ground ~20,000 ft ~40,000 ft Winds

METAR

SBUL 190600Z 11007KT CAVOK 17/14 Q1019

TAF

TAF SBUL 182240Z 1900/1912 10005KT CAVOK TX18/1900Z TN15/1909Z PROB30 1906/1910 0500 FG VV002 RMK PGG

Frequencies

Tower 118.80 MHz Uberlandia Tower
Approach 120.80 MHz Uberlandia Approach
Warning: Do not use this data for real-world aviation or navigation. No guarantee of current accuracy is given.